createdAt,value
2023-01-11T00:01:53.648Z,1.13
2023-01-11T00:04:20.692Z,1.00
2023-01-11T00:06:47.325Z,1.48
2023-01-11T00:09:13.996Z,1.10
2023-01-11T00:11:40.562Z,1.58
2023-01-11T00:14:07.094Z,0.95
2023-01-11T00:16:33.617Z,1.10
2023-01-11T00:19:00.123Z,1.17
2023-01-11T00:21:26.840Z,1.10
2023-01-11T00:23:53.449Z,1.10
2023-01-11T00:26:20.067Z,1.02
2023-01-11T00:28:48.780Z,1.23
2023-01-11T00:31:16.053Z,1.20
2023-01-11T00:36:09.788Z,1.10
2023-01-11T00:38:47.118Z,1.00
2023-01-11T00:41:42.402Z,0.90
2023-01-11T00:44:29.699Z,1.00
2023-01-11T00:47:29.369Z,1.20
2023-01-11T00:49:55.877Z,0.82
2023-01-11T00:52:22.570Z,0.90
2023-01-11T00:54:49.495Z,0.82
2023-01-11T00:57:16.074Z,1.20
2023-01-11T00:59:42.633Z,1.88
2023-01-11T01:02:10.449Z,5.28
2023-01-11T01:04:37.710Z,4.28
2023-01-11T01:07:04.874Z,3.28
2023-01-11T01:09:31.686Z,5.15
2023-01-11T01:11:59.115Z,4.43
2023-01-11T01:17:07.227Z,1.38
2023-01-11T01:19:38.348Z,3.70
2023-01-11T01:22:05.112Z,2.70
2023-01-11T01:24:32.569Z,2.35
2023-01-11T01:26:59.476Z,2.75
2023-01-11T01:29:27.266Z,1.90
2023-01-11T01:31:53.883Z,2.10
2023-01-11T01:34:20.423Z,1.77
2023-01-11T01:36:47.012Z,1.67
2023-01-11T01:39:13.813Z,1.65
2023-01-11T01:41:40.574Z,1.90
2023-01-11T01:44:44.860Z,1.30
2023-01-11T01:47:12.660Z,2.40
2023-01-11T01:49:40.754Z,1.50
2023-01-11T01:52:08.890Z,2.80
2023-01-11T01:54:40.941Z,1.50
2023-01-11T01:57:15.293Z,1.30
2023-01-11T01:59:42.063Z,1.75
2023-01-11T02:02:08.601Z,1.65
2023-01-11T02:04:44.286Z,1.20
2023-01-11T02:07:16.393Z,1.45
2023-01-11T02:09:55.361Z,1.40
2023-01-11T02:12:22.686Z,2.20
2023-01-11T02:17:16.205Z,2.03
2023-01-11T02:20:04.528Z,3.60
2023-01-11T02:22:33.699Z,1.70
2023-01-11T02:25:12.806Z,1.67
2023-01-11T02:27:48.117Z,1.23
2023-01-11T02:30:23.475Z,1.55
2023-01-11T02:32:50.000Z,1.50
2023-01-11T02:35:36.631Z,1.58
2023-01-11T02:38:24.599Z,5.15
2023-01-11T02:41:00.965Z,5.63
2023-01-11T02:43:55.221Z,1.95
2023-01-11T02:46:52.996Z,2.08
2023-01-11T02:49:39.563Z,2.40
2023-01-11T02:52:17.460Z,2.63
2023-01-11T02:54:47.957Z,2.75
2023-01-11T02:57:15.673Z,2.50
2023-01-11T02:59:42.345Z,4.25
2023-01-11T03:02:09.847Z,8.00
2023-01-11T03:04:37.574Z,7.95
2023-01-11T03:07:06.838Z,5.80
2023-01-11T03:09:43.278Z,5.45
2023-01-11T03:12:31.213Z,3.80
2023-01-11T03:15:30.531Z,2.22
2023-01-11T03:18:08.902Z,2.00
2023-01-11T03:20:40.849Z,1.77
2023-01-11T03:23:45.056Z,1.70
2023-01-11T03:26:29.819Z,2.10
2023-01-11T03:29:08.576Z,1.80
2023-01-11T03:31:40.716Z,1.58
2023-01-11T03:34:27.016Z,1.50
2023-01-11T03:37:25.514Z,4.53
2023-01-11T03:40:14.248Z,3.55
2023-01-11T03:43:04.258Z,2.10
2023-01-11T03:45:35.695Z,1.85
2023-01-11T03:48:05.023Z,1.85
2023-01-11T03:50:33.899Z,2.00
2023-01-11T03:53:03.693Z,2.00
2023-01-11T03:55:37.017Z,1.52
2023-01-11T03:58:03.710Z,1.48
2023-01-11T04:00:31.642Z,1.48
2023-01-11T04:03:00.580Z,1.67
2023-01-11T04:05:27.137Z,1.58
2023-01-11T04:07:54.550Z,1.67
2023-01-11T04:12:48.748Z,1.70
2023-01-11T04:15:16.251Z,1.60
2023-01-11T04:17:43.107Z,1.90
2023-01-11T04:20:11.036Z,7.07
2023-01-11T04:22:38.424Z,3.10
2023-01-11T04:25:05.392Z,3.75
2023-01-11T04:27:31.979Z,6.70
2023-01-11T04:29:58.489Z,7.47
2023-01-11T04:32:25.009Z,10.48
2023-01-11T04:34:51.599Z,15.77
2023-01-11T04:37:18.190Z,20.30
2023-01-11T04:39:44.729Z,7.15
2023-01-11T04:42:21.330Z,9.00
2023-01-11T04:44:49.466Z,8.02
2023-01-11T04:47:17.279Z,7.20
2023-01-11T04:49:44.230Z,6.20
2023-01-11T04:52:12.397Z,5.13
2023-01-11T04:54:39.391Z,5.40
2023-01-11T04:57:07.188Z,5.50
2023-01-11T04:59:33.761Z,5.18
2023-01-11T05:02:00.337Z,3.13
2023-01-11T05:04:26.944Z,5.88
2023-01-11T05:06:53.630Z,11.30
2023-01-11T05:09:20.474Z,16.38
2023-01-11T05:11:47.398Z,13.15
2023-01-11T05:14:15.523Z,20.40
2023-01-11T05:16:42.846Z,22.23
2023-01-11T05:21:39.365Z,9.98
2023-01-11T05:24:08.814Z,7.85
2023-01-11T05:26:38.177Z,12.18
2023-01-11T05:29:07.034Z,13.45
2023-01-11T05:31:35.137Z,12.65
2023-01-11T05:34:01.832Z,9.73
2023-01-11T05:36:28.873Z,9.35
2023-01-11T05:38:57.211Z,11.32
2023-01-11T05:41:26.025Z,19.75
2023-01-11T05:44:12.673Z,16.73
2023-01-11T05:46:41.586Z,11.68
2023-01-11T05:49:09.461Z,10.93
2023-01-11T05:51:38.130Z,12.38
2023-01-11T05:54:06.775Z,13.63
2023-01-11T05:56:33.980Z,10.50
2023-01-11T05:59:00.639Z,9.50
2023-01-11T06:01:27.364Z,8.52
2023-01-11T06:03:54.011Z,6.88
2023-01-11T06:06:21.265Z,12.43
2023-01-11T06:11:14.991Z,11.32
2023-01-11T06:13:41.720Z,12.35
2023-01-11T06:16:12.722Z,14.77
2023-01-11T06:18:41.965Z,12.77
2023-01-11T06:21:09.882Z,11.13
2023-01-11T06:23:39.599Z,8.52
2023-01-11T06:26:09.108Z,8.05
2023-01-11T06:28:36.989Z,8.27
2023-01-11T06:31:04.566Z,8.05
2023-01-11T06:33:31.352Z,5.95
2023-01-11T06:35:58.985Z,6.00
2023-01-11T06:38:26.240Z,9.30
2023-01-11T06:43:25.016Z,11.70
2023-01-11T06:45:51.920Z,11.68
2023-01-11T06:48:19.683Z,17.15
2023-01-11T06:50:54.607Z,17.13
2023-01-11T06:53:21.977Z,12.55
2023-01-11T06:58:23.841Z,11.82
2023-01-11T07:00:52.026Z,13.45
2023-01-11T07:03:20.466Z,14.98
2023-01-11T07:05:47.414Z,14.65
2023-01-11T07:08:13.943Z,19.17
2023-01-11T07:10:41.101Z,11.75
2023-01-11T07:13:07.924Z,12.93
2023-01-11T07:15:34.918Z,9.75
2023-01-11T07:18:01.854Z,14.77
2023-01-11T07:20:28.872Z,15.38
2023-01-11T07:22:59.996Z,17.90
2023-01-11T07:25:30.389Z,14.93
2023-01-11T07:28:01.981Z,15.27
2023-01-11T07:30:31.314Z,17.40
2023-01-11T07:32:59.178Z,15.95
2023-01-11T07:35:28.195Z,13.95
2023-01-11T07:37:55.901Z,11.27
2023-01-11T07:40:22.468Z,11.75
2023-01-11T07:43:11.597Z,7.90
2023-01-11T07:45:47.323Z,10.45
2023-01-11T07:48:15.572Z,6.72
2023-01-11T07:50:44.768Z,8.52
2023-01-11T07:53:12.844Z,7.93
2023-01-11T07:55:40.231Z,6.90
2023-01-11T07:58:10.686Z,9.70
2023-01-11T08:00:37.257Z,10.35
2023-01-11T08:03:04.059Z,9.95
2023-01-11T08:05:30.688Z,12.63
2023-01-11T08:07:57.457Z,6.63
2023-01-11T08:10:24.350Z,10.48
2023-01-11T08:13:09.739Z,10.07
2023-01-11T08:15:42.571Z,32.85
2023-01-11T08:18:11.576Z,10.80
2023-01-11T08:20:39.067Z,10.70
2023-01-11T08:23:07.903Z,8.60
2023-01-11T08:25:35.353Z,6.80
2023-01-11T08:28:04.272Z,9.70
2023-01-11T08:30:30.860Z,9.93
2023-01-11T08:32:57.792Z,10.23
2023-01-11T08:35:27.292Z,8.27
2023-01-11T08:37:54.360Z,8.50
2023-01-11T08:40:23.728Z,8.60
2023-01-11T08:42:55.008Z,7.80
2023-01-11T08:45:22.187Z,7.60
2023-01-11T08:47:50.787Z,10.35
2023-01-11T08:50:18.642Z,7.78
2023-01-11T08:52:45.620Z,9.35
2023-01-11T08:55:12.149Z,6.80
2023-01-11T08:57:38.975Z,9.85
2023-01-11T09:00:07.670Z,8.25
2023-01-11T09:02:34.573Z,7.63
2023-01-11T09:05:01.164Z,9.60
2023-01-11T09:07:27.866Z,5.82
2023-01-11T09:09:54.606Z,8.40
2023-01-11T09:12:21.301Z,8.30
2023-01-11T09:14:47.831Z,6.25
2023-01-11T09:17:14.446Z,5.00
2023-01-11T09:19:40.955Z,6.00
2023-01-11T09:22:07.505Z,12.07
2023-01-11T09:24:34.089Z,11.57
2023-01-11T09:27:00.799Z,10.48
2023-01-11T09:29:27.545Z,7.18
2023-01-11T09:31:54.125Z,11.00
2023-01-11T09:34:21.184Z,19.58
2023-01-11T09:36:49.011Z,9.75
2023-01-11T09:39:18.801Z,7.88
2023-01-11T09:42:00.246Z,8.50
2023-01-11T09:44:29.730Z,7.53
2023-01-11T09:47:15.669Z,6.72
2023-01-11T09:49:47.269Z,8.73
2023-01-11T09:52:29.922Z,7.72
2023-01-11T09:55:01.397Z,7.97
2023-01-11T09:57:33.689Z,6.65
2023-01-11T10:00:24.073Z,6.38
2023-01-11T10:03:08.669Z,7.57
2023-01-11T10:05:50.087Z,7.35
2023-01-11T10:18:33.077Z,7.43
2023-01-11T10:18:37.723Z,5.35
2023-01-11T10:20:55.369Z,7.68
2023-01-11T10:23:57.464Z,3.92
2023-01-11T10:26:36.093Z,2.90
2023-01-11T10:29:21.684Z,4.15
2023-01-11T10:32:19.963Z,2.40
2023-01-11T10:34:58.335Z,1.48
2023-01-11T10:37:30.719Z,1.85
2023-01-11T10:40:19.573Z,1.15
2023-01-11T10:42:52.744Z,1.20
2023-01-11T10:45:25.488Z,1.00
2023-01-11T10:48:02.743Z,0.88
2023-01-11T10:53:17.129Z,1.00
2023-01-11T10:56:08.476Z,0.90
2023-01-11T10:58:57.908Z,0.95
2023-01-11T11:01:45.331Z,1.00
2023-01-11T11:04:22.617Z,1.05
2023-01-11T11:07:05.472Z,1.23
2023-01-11T11:09:56.088Z,1.55
2023-01-11T11:12:30.921Z,1.48
2023-01-11T11:15:13.356Z,1.40
2023-01-11T11:17:46.088Z,1.73
2023-01-11T11:20:22.325Z,1.65
2023-01-11T11:22:56.809Z,1.70
2023-01-11T11:25:37.372Z,1.60
2023-01-11T11:28:27.423Z,1.52
2023-01-11T11:30:57.265Z,1.30
2023-01-11T11:33:35.472Z,1.40
2023-01-11T11:36:07.967Z,1.50
2023-01-11T11:38:37.313Z,1.80
2023-01-11T11:41:12.950Z,1.75
2023-01-11T11:43:47.620Z,1.63
2023-01-11T11:46:18.733Z,1.73
2023-01-11T11:49:18.063Z,1.40
2023-01-11T11:51:47.074Z,1.75
2023-01-11T11:54:19.680Z,1.48
2023-01-11T11:56:47.418Z,1.70
2023-01-11T11:59:17.865Z,1.70
2023-01-11T12:01:48.441Z,1.70
2023-01-11T12:04:45.034Z,2.00
2023-01-11T12:07:19.384Z,3.88
2023-01-11T12:09:57.559Z,2.80
2023-01-11T12:12:27.886Z,2.53
2023-01-11T12:15:14.523Z,1.67
2023-01-11T12:17:41.544Z,1.88
2023-01-11T12:20:23.064Z,2.20
2023-01-11T12:23:10.363Z,2.60
2023-01-11T12:25:46.036Z,2.35
2023-01-11T12:28:28.145Z,2.35
2023-01-11T12:31:11.143Z,1.77
2023-01-11T12:33:58.709Z,1.80
2023-01-11T12:36:54.893Z,1.85
2023-01-11T12:39:45.657Z,1.70
2023-01-11T12:42:27.416Z,1.40
2023-01-11T12:45:13.461Z,1.70
2023-01-11T12:48:01.517Z,1.50
2023-01-11T12:50:50.948Z,1.48
2023-01-11T12:53:23.487Z,1.50
2023-01-11T12:55:58.274Z,1.63
2023-01-11T12:59:02.005Z,1.70
2023-01-11T13:01:49.965Z,1.73
2023-01-11T13:04:36.769Z,1.38
2023-01-11T13:07:13.938Z,1.45
2023-01-11T13:12:48.016Z,1.40
2023-01-11T13:15:35.651Z,1.70
2023-01-11T13:18:10.775Z,1.80
2023-01-11T13:21:01.409Z,1.77
2023-01-11T13:23:54.741Z,1.90
2023-01-11T13:26:29.702Z,1.92
2023-01-11T13:29:25.633Z,2.00
2023-01-11T13:31:54.389Z,1.77
2023-01-11T13:34:47.457Z,2.50
2023-01-11T13:37:23.932Z,2.67
2023-01-11T13:40:20.278Z,2.10
2023-01-11T13:43:03.753Z,2.20
2023-01-11T13:45:38.919Z,2.40
2023-01-11T13:48:19.338Z,2.30
2023-01-11T13:51:02.743Z,2.13
2023-01-11T13:53:39.426Z,2.22
2023-01-11T13:56:20.289Z,2.05
2023-01-11T13:59:01.642Z,2.13
2023-01-11T14:01:31.341Z,2.10
2023-01-11T14:04:08.407Z,2.00
2023-01-11T14:06:40.788Z,2.40
2023-01-11T14:09:31.939Z,1.90
2023-01-11T14:12:10.497Z,2.00
2023-01-11T14:15:12.251Z,2.22
2023-01-11T14:17:57.899Z,2.17
2023-01-11T14:20:32.747Z,2.47
2023-01-11T14:23:07.615Z,2.30
2023-01-11T14:25:45.375Z,2.20
2023-01-11T14:28:18.573Z,2.10
2023-01-11T14:31:06.713Z,2.40
2023-01-11T14:34:10.981Z,2.70
2023-01-11T14:36:47.520Z,2.60
2023-01-11T14:39:37.120Z,2.72
2023-01-11T14:42:34.369Z,2.53
2023-01-11T14:45:04.584Z,2.38
2023-01-11T14:47:59.077Z,2.40
2023-01-11T14:50:56.035Z,2.50
2023-01-11T14:53:42.611Z,2.90
2023-01-11T14:56:33.692Z,2.50
2023-01-11T14:59:20.946Z,2.45
2023-01-11T15:02:02.933Z,2.85
2023-01-11T15:04:58.614Z,3.00
2023-01-11T15:07:34.217Z,2.60
2023-01-11T15:10:04.497Z,2.50
2023-01-11T15:12:34.215Z,2.63
2023-01-11T15:15:12.818Z,3.10
2023-01-11T15:17:59.287Z,2.92
2023-01-11T15:20:26.738Z,2.55
2023-01-11T15:22:58.660Z,3.10
2023-01-11T15:25:33.552Z,2.88
2023-01-11T15:28:04.331Z,3.65
2023-01-11T15:30:30.932Z,5.10
2023-01-11T15:33:19.480Z,4.63
2023-01-11T15:35:55.449Z,3.60
2023-01-11T15:38:40.651Z,3.20
2023-01-11T15:41:32.320Z,2.80
2023-01-11T15:44:36.128Z,2.63
2023-01-11T15:47:05.696Z,4.40
2023-01-11T15:49:46.694Z,2.92
2023-01-11T15:52:26.144Z,3.00
2023-01-11T15:55:17.085Z,2.72
2023-01-11T15:57:52.734Z,3.30
2023-01-11T16:00:56.807Z,3.10
2023-01-11T16:03:46.943Z,3.03
2023-01-11T16:06:31.911Z,2.80
2023-01-11T16:09:26.351Z,4.05
2023-01-11T16:12:22.846Z,3.20
2023-01-11T16:15:11.009Z,2.90
2023-01-11T16:17:41.032Z,3.25
2023-01-11T16:20:19.754Z,2.85
2023-01-11T16:23:02.580Z,3.55
2023-01-11T16:25:32.344Z,3.67
2023-01-11T16:28:00.278Z,5.38
2023-01-11T16:30:28.190Z,4.75
2023-01-11T16:33:14.384Z,5.00
2023-01-11T16:35:41.053Z,7.00
2023-01-11T16:38:16.041Z,4.63
2023-01-11T16:40:46.203Z,5.85
2023-01-11T16:43:25.411Z,4.75
2023-01-11T16:45:56.236Z,4.60
2023-01-11T16:48:25.101Z,3.65
2023-01-11T16:51:08.443Z,3.67
2023-01-11T16:53:37.433Z,3.20
2023-01-11T16:56:18.256Z,3.30
2023-01-11T16:59:06.889Z,3.05
2023-01-11T17:01:53.174Z,3.25
2023-01-11T17:04:31.515Z,3.55
2023-01-11T17:07:13.336Z,3.95
2023-01-11T17:09:42.993Z,4.53
2023-01-11T17:12:16.643Z,3.33
2023-01-11T17:15:00.521Z,2.78
2023-01-11T17:17:28.060Z,2.60
2023-01-11T17:19:58.782Z,2.70
2023-01-11T17:22:45.715Z,2.60
2023-01-11T17:27:54.723Z,3.20
2023-01-11T17:30:26.237Z,3.42
2023-01-11T17:32:55.279Z,3.92
2023-01-11T17:35:36.562Z,2.60
2023-01-11T17:38:05.921Z,2.83
2023-01-11T17:40:38.709Z,3.05
2023-01-11T17:43:42.963Z,3.67
2023-01-11T17:46:18.226Z,3.60
2023-01-11T17:48:54.119Z,4.72
2023-01-11T17:51:34.971Z,7.47
2023-01-11T17:54:01.773Z,4.47
2023-01-11T17:56:41.911Z,4.80
2023-01-11T17:59:11.472Z,4.70
2023-01-11T18:01:38.567Z,4.45
2023-01-11T18:04:05.678Z,5.65
2023-01-11T18:06:36.608Z,4.00
2023-01-11T18:09:06.451Z,4.28
2023-01-11T18:11:41.470Z,3.80
2023-01-11T18:14:19.461Z,4.43
2023-01-11T18:16:58.859Z,4.80
2023-01-11T18:19:34.774Z,4.32
2023-01-11T18:22:01.601Z,5.28
2023-01-11T18:24:33.820Z,4.22
2023-01-11T18:27:15.372Z,4.13
2023-01-11T18:29:44.543Z,4.45
2023-01-11T18:32:12.983Z,4.30
2023-01-11T18:34:40.055Z,4.50
2023-01-11T18:37:06.670Z,4.90
2023-01-11T18:39:36.663Z,4.43
2023-01-11T18:42:08.014Z,4.63
2023-01-11T18:44:42.762Z,4.60
2023-01-11T18:47:24.760Z,4.50
2023-01-11T18:49:52.620Z,4.38
2023-01-11T18:52:20.979Z,4.93
2023-01-11T18:54:48.111Z,4.60
2023-01-11T18:57:14.775Z,5.20
2023-01-11T18:59:41.466Z,3.70
2023-01-11T19:04:51.219Z,4.25
2023-01-11T19:07:18.941Z,4.57
2023-01-11T19:09:45.608Z,4.97
2023-01-11T19:12:13.262Z,4.75
2023-01-11T19:14:40.572Z,4.40
2023-01-11T19:19:34.982Z,4.65
2023-01-11T19:22:01.701Z,4.28
2023-01-11T19:24:28.306Z,4.82
2023-01-11T19:26:55.253Z,4.72
2023-01-11T19:29:24.628Z,4.80
2023-01-11T19:31:52.756Z,5.10
2023-01-11T19:34:19.823Z,5.40
2023-01-11T19:36:46.575Z,5.00
2023-01-11T19:39:13.202Z,5.00
2023-01-11T19:41:55.187Z,5.20
2023-01-11T19:44:23.012Z,4.95
2023-01-11T19:46:57.088Z,4.80
2023-01-11T19:49:36.174Z,4.65
2023-01-11T19:52:02.955Z,4.53
2023-01-11T19:54:29.487Z,4.63
2023-01-11T19:56:56.291Z,5.03
2023-01-11T19:59:22.829Z,4.95
2023-01-11T20:01:49.423Z,4.72
2023-01-11T20:04:16.441Z,4.75
2023-01-11T20:06:50.360Z,5.30
2023-01-11T20:09:18.422Z,5.50
2023-01-11T20:11:45.706Z,5.30
2023-01-11T20:14:12.527Z,5.00
2023-01-11T20:16:39.090Z,5.28
2023-01-11T20:19:05.684Z,5.57
2023-01-11T20:21:34.208Z,5.95
2023-01-11T20:24:02.299Z,5.82
2023-01-11T20:26:30.655Z,5.10
2023-01-11T20:28:58.245Z,5.10
2023-01-11T20:31:28.240Z,5.68
2023-01-11T20:33:56.034Z,5.47
2023-01-11T20:36:23.224Z,5.70
2023-01-11T20:38:49.949Z,5.60
2023-01-11T20:41:37.864Z,5.80
2023-01-11T20:44:06.090Z,6.03
2023-01-11T20:46:33.446Z,5.75
2023-01-11T20:51:27.005Z,5.38
2023-01-11T20:53:53.651Z,5.65
2023-01-11T20:56:20.227Z,6.03
2023-01-11T20:58:48.241Z,6.07
2023-01-11T21:01:16.535Z,5.80
2023-01-11T21:03:43.115Z,7.30
2023-01-11T21:06:10.042Z,6.18
2023-01-11T21:08:37.377Z,6.60
2023-01-11T21:13:35.599Z,5.63
2023-01-11T21:16:14.087Z,6.07
2023-01-11T21:18:43.897Z,5.57
2023-01-11T21:21:15.615Z,5.65
2023-01-11T21:23:42.321Z,5.78
2023-01-11T21:26:18.653Z,4.07
2023-01-11T21:28:49.860Z,5.30
2023-01-11T21:31:17.887Z,5.32
2023-01-11T21:33:44.496Z,5.88
2023-01-11T21:36:13.830Z,6.10
2023-01-11T21:38:40.673Z,6.25
2023-01-11T21:41:08.413Z,6.35
2023-01-11T21:43:35.953Z,5.72
2023-01-11T21:46:04.775Z,6.88
2023-01-11T21:48:32.117Z,6.05
2023-01-11T21:53:29.490Z,34.05
2023-01-11T21:55:56.531Z,15.88
2023-01-11T21:58:23.077Z,8.93
2023-01-11T22:00:49.661Z,16.88
2023-01-11T22:03:16.272Z,6.47
2023-01-11T22:05:42.761Z,5.97
2023-01-11T22:08:09.280Z,6.43
2023-01-11T22:10:35.901Z,6.37
2023-01-11T22:13:02.529Z,7.30
2023-01-11T22:15:29.048Z,6.75
2023-01-11T22:17:55.686Z,5.03
2023-01-11T22:20:22.211Z,6.60
2023-01-11T22:22:48.840Z,5.85
2023-01-11T22:25:15.635Z,5.72
2023-01-11T22:27:42.226Z,4.43
2023-01-11T22:30:09.461Z,5.45
2023-01-11T22:32:35.969Z,5.05
2023-01-11T22:35:02.609Z,5.13
2023-01-11T22:37:29.117Z,5.82
2023-01-11T22:39:55.628Z,5.38
2023-01-11T22:42:22.174Z,5.43
2023-01-11T22:44:50.044Z,5.80
2023-01-11T22:47:16.549Z,5.63
2023-01-11T22:49:43.101Z,6.57
2023-01-11T22:52:09.645Z,5.60
2023-01-11T22:54:36.179Z,6.10
2023-01-11T22:57:02.795Z,6.28
2023-01-11T22:59:29.358Z,5.90
2023-01-11T23:01:55.917Z,6.47
2023-01-11T23:04:22.581Z,6.13
2023-01-11T23:06:49.259Z,6.63
2023-01-11T23:09:16.902Z,5.63
2023-01-11T23:12:02.830Z,5.70
2023-01-11T23:14:31.099Z,6.10
2023-01-11T23:17:08.135Z,5.93
2023-01-11T23:19:39.938Z,6.00
2023-01-11T23:22:07.695Z,5.88
2023-01-11T23:24:36.021Z,6.03
2023-01-11T23:27:02.681Z,5.88
2023-01-11T23:29:29.240Z,6.00
2023-01-11T23:31:55.810Z,6.50
2023-01-11T23:34:22.928Z,6.00
2023-01-11T23:36:49.449Z,6.57
2023-01-11T23:39:18.817Z,6.20
2023-01-11T23:42:04.440Z,6.63
2023-01-11T23:44:31.329Z,6.25
2023-01-11T23:47:16.354Z,6.72
2023-01-11T23:49:43.782Z,6.72
2023-01-11T23:52:11.273Z,6.32
2023-01-11T23:54:37.874Z,6.65
2023-01-11T23:57:04.519Z,6.93
2023-01-11T23:59:31.579Z,6.75
